sensor_id;sensor_type;location;lat;lon;timestamp;pressure;altitude;pressure_sealevel;temperature;humidity
71976;BME280;60680;52.182;5.398;2023-02-05T00:01:53;103703.63;;;7.56;100.00
71976;BME280;60680;52.182;5.398;2023-02-05T00:04:20;103692.41;;;7.55;100.00
71976;BME280;60680;52.182;5.398;2023-02-05T00:06:47;103682.88;;;7.56;100.00
71976;BME280;60680;52.182;5.398;2023-02-05T00:09:14;103682.88;;;7.56;100.00
71976;BME280;60680;52.182;5.398;2023-02-05T00:11:41;103688.09;;;7.54;100.00
71976;BME280;60680;52.182;5.398;2023-02-05T00:14:07;103698.44;;;7.54;100.00
71976;BME280;60680;52.182;5.398;2023-02-05T00:16:34;103683.75;;;7.53;100.00
71976;BME280;60680;52.182;5.398;2023-02-05T00:19:01;103684.59;;;7.54;100.00
71976;BME280;60680;52.182;5.398;2023-02-05T00:21:27;103678.56;;;7.53;100.00
71976;BME280;60680;52.182;5.398;2023-02-05T00:23:54;103667.34;;;7.53;100.00
71976;BME280;60680;52.182;5.398;2023-02-05T00:26:20;103660.41;;;7.53;100.00
71976;BME280;60680;52.182;5.398;2023-02-05T00:28:47;103648.31;;;7.51;100.00
71976;BME280;60680;52.182;5.398;2023-02-05T00:31:19;103662.16;;;7.53;100.00
71976;BME280;60680;52.182;5.398;2023-02-05T00:33:47;103662.13;;;7.51;100.00
71976;BME280;60680;52.182;5.398;2023-02-05T00:36:14;103663.00;;;7.50;100.00
71976;BME280;60680;52.182;5.398;2023-02-05T00:38:42;103663.00;;;7.50;100.00
71976;BME280;60680;52.182;5.398;2023-02-05T00:41:10;103662.97;;;7.49;100.00
71976;BME280;60680;52.182;5.398;2023-02-05T00:43:38;103669.91;;;7.48;100.00
71976;BME280;60680;52.182;5.398;2023-02-05T00:46:04;103673.31;;;7.47;100.00
71976;BME280;60680;52.182;5.398;2023-02-05T00:48:31;103660.34;;;7.46;100.00
71976;BME280;60680;52.182;5.398;2023-02-05T00:50:57;103666.41;;;7.45;100.00
71976;BME280;60680;52.182;5.398;2023-02-05T00:53:25;103663.81;;;7.45;100.00
71976;BME280;60680;52.182;5.398;2023-02-05T00:55:51;103658.59;;;7.43;100.00
71976;BME280;60680;52.182;5.398;2023-02-05T00:58:18;103661.19;;;7.43;100.00
71976;BME280;60680;52.182;5.398;2023-02-05T01:00:45;103663.78;;;7.43;100.00
71976;BME280;60680;52.182;5.398;2023-02-05T01:03:12;103673.28;;;7.43;100.00
71976;BME280;60680;52.182;5.398;2023-02-05T01:05:38;103669.84;;;7.42;100.00
71976;BME280;60680;52.182;5.398;2023-02-05T01:08:07;103674.16;;;7.43;100.00
71976;BME280;60680;52.182;5.398;2023-02-05T01:10:34;103675.00;;;7.44;100.00
71976;BME280;60680;52.182;5.398;2023-02-05T01:13:00;103659.47;;;7.42;100.00
71976;BME280;60680;52.182;5.398;2023-02-05T01:15:27;103667.25;;;7.42;100.00
71976;BME280;60680;52.182;5.398;2023-02-05T01:17:53;103658.63;;;7.42;100.00
71976;BME280;60680;52.182;5.398;2023-02-05T01:20:20;103664.66;;;7.42;100.00
71976;BME280;60680;52.182;5.398;2023-02-05T01:22:47;103672.44;;;7.42;100.00
71976;BME280;60680;52.182;5.398;2023-02-05T01:25:14;103660.31;;;7.41;100.00
71976;BME280;60680;52.182;5.398;2023-02-05T01:27:41;103660.31;;;7.41;100.00
71976;BME280;60680;52.182;5.398;2023-02-05T01:30:08;103666.38;;;7.42;100.00
71976;BME280;60680;52.182;5.398;2023-02-05T01:32:37;103662.91;;;7.41;100.00
71976;BME280;60680;52.182;5.398;2023-02-05T01:35:04;103665.50;;;7.40;100.00
71976;BME280;60680;52.182;5.398;2023-02-05T01:37:30;103677.56;;;7.39;100.00
71976;BME280;60680;52.182;5.398;2023-02-05T01:39:57;103671.53;;;7.39;100.00
71976;BME280;60680;52.182;5.398;2023-02-05T01:42:26;103678.44;;;7.38;100.00
71976;BME280;60680;52.182;5.398;2023-02-05T01:50:38;103689.63;;;7.37;100.00
71976;BME280;60680;52.182;5.398;2023-02-05T01:53:09;103678.41;;;7.37;100.00
71976;BME280;60680;52.182;5.398;2023-02-05T01:55:40;103669.81;;;7.38;100.00
71976;BME280;60680;52.182;5.398;2023-02-05T01:58:08;103671.50;;;7.35;100.00
71976;BME280;60680;52.182;5.398;2023-02-05T02:00:35;103668.91;;;7.35;100.00
71976;BME280;60680;52.182;5.398;2023-02-05T02:03:02;103655.97;;;7.35;100.00
71976;BME280;60680;52.182;5.398;2023-02-05T02:05:29;103651.66;;;7.36;100.00
71976;BME280;60680;52.182;5.398;2023-02-05T02:07:55;103649.91;;;7.35;100.00
71976;BME280;60680;52.182;5.398;2023-02-05T02:10:22;103643.00;;;7.34;100.00
71976;BME280;60680;52.182;5.398;2023-02-05T02:12:49;103630.88;;;7.33;100.00
71976;BME280;60680;52.182;5.398;2023-02-05T02:15:20;103643.84;;;7.34;100.00
71976;BME280;60680;52.182;5.398;2023-02-05T02:17:51;103637.78;;;7.32;100.00
71976;BME280;60680;52.182;5.398;2023-02-05T02:20:25;103634.34;;;7.32;100.00
71976;BME280;60680;52.182;5.398;2023-02-05T02:25:53;103633.47;;;7.30;100.00
71976;BME280;60680;52.182;5.398;2023-02-05T02:28:33;103619.63;;;7.28;100.00
71976;BME280;60680;52.182;5.398;2023-02-05T02:31:11;103618.78;;;7.27;100.00
71976;BME280;60680;52.182;5.398;2023-02-05T02:33:49;103605.81;;;7.26;100.00
71976;BME280;60680;52.182;5.398;2023-02-05T02:39:24;103591.13;;;7.25;100.00
71976;BME280;60680;52.182;5.398;2023-02-05T02:41:55;103587.66;;;7.23;100.00
71976;BME280;60680;52.182;5.398;2023-02-05T02:46:56;103582.38;;;7.13;100.00
71976;BME280;60680;52.182;5.398;2023-02-05T02:49:29;103591.88;;;7.10;100.00
71976;BME280;60680;52.182;5.398;2023-02-05T02:51:57;103597.88;;;7.09;100.00
71976;BME280;60680;52.182;5.398;2023-02-05T02:54:27;103591.81;;;7.07;100.00
71976;BME280;60680;52.182;5.398;2023-02-05T02:56:55;103588.31;;;7.00;100.00
71976;BME280;60680;52.182;5.398;2023-02-05T02:59:25;103598.66;;;6.99;100.00
71976;BME280;60680;52.182;5.398;2023-02-05T03:01:56;103600.38;;;6.98;100.00
71976;BME280;60680;52.182;5.398;2023-02-05T03:04:28;103604.72;;;6.99;100.00
71976;BME280;60680;52.182;5.398;2023-02-05T03:07:01;103607.28;;;6.98;100.00
71976;BME280;60680;52.182;5.398;2023-02-05T03:09:35;103610.75;;;6.98;100.00
71976;BME280;60680;52.182;5.398;2023-02-05T03:12:03;103607.28;;;6.98;100.00
71976;BME280;60680;52.182;5.398;2023-02-05T03:14:30;103603.81;;;6.99;100.00
71976;BME280;60680;52.182;5.398;2023-02-05T03:16:56;103607.31;;;6.99;100.00
71976;BME280;60680;52.182;5.398;2023-02-05T03:19:23;103619.38;;;6.99;100.00
71976;BME280;60680;52.182;5.398;2023-02-05T03:21:53;103609.03;;;7.00;100.00
71976;BME280;60680;52.182;5.398;2023-02-05T03:24:21;103618.53;;;7.00;100.00
71976;BME280;60680;52.182;5.398;2023-02-05T03:26:48;103621.94;;;6.99;100.00
71976;BME280;60680;52.182;5.398;2023-02-05T03:29:18;103617.66;;;6.99;100.00
71976;BME280;60680;52.182;5.398;2023-02-05T03:31:55;103617.66;;;7.01;100.00
71976;BME280;60680;52.182;5.398;2023-02-05T03:37:15;103610.75;;;7.01;100.00
71976;BME280;60680;52.182;5.398;2023-02-05T03:40:17;103612.50;;;7.02;100.00
71976;BME280;60680;52.182;5.398;2023-02-05T03:42:50;103601.25;;;7.00;100.00
71976;BME280;60680;52.182;5.398;2023-02-05T03:45:33;103611.66;;;7.02;100.00
71976;BME280;60680;52.182;5.398;2023-02-05T03:48:35;103609.94;;;7.04;100.00
71976;BME280;60680;52.182;5.398;2023-02-05T03:51:22;103621.19;;;7.06;99.83
71976;BME280;60680;52.182;5.398;2023-02-05T03:54:02;103623.75;;;7.04;100.00
71976;BME280;60680;52.182;5.398;2023-02-05T03:56:39;103614.22;;;7.03;100.00
71976;BME280;60680;52.182;5.398;2023-02-05T03:59:10;103609.91;;;7.02;100.00
71976;BME280;60680;52.182;5.398;2023-02-05T04:01:39;103609.91;;;7.02;100.00
71976;BME280;60680;52.182;5.398;2023-02-05T04:04:05;103606.44;;;7.00;99.59
71976;BME280;60680;52.182;5.398;2023-02-05T04:06:34;103608.16;;;7.00;99.71
71976;BME280;60680;52.182;5.398;2023-02-05T04:09:00;103610.75;;;7.00;99.78
71976;BME280;60680;52.182;5.398;2023-02-05T04:11:27;103613.31;;;6.98;99.67
71976;BME280;60680;52.182;5.398;2023-02-05T04:13:53;103618.47;;;6.97;99.57
71976;BME280;60680;52.182;5.398;2023-02-05T04:16:20;103611.59;;;6.97;100.00
71976;BME280;60680;52.182;5.398;2023-02-05T04:18:46;103613.31;;;6.97;100.00
71976;BME280;60680;52.182;5.398;2023-02-05T04:21:13;103611.59;;;6.97;100.00
71976;BME280;60680;52.182;5.398;2023-02-05T04:23:39;103611.59;;;6.96;100.00
71976;BME280;60680;52.182;5.398;2023-02-05T04:26:06;103611.56;;;6.94;100.00
71976;BME280;60680;52.182;5.398;2023-02-05T04:28:32;103609.84;;;6.94;100.00
71976;BME280;60680;52.182;5.398;2023-02-05T04:30:59;103604.66;;;6.94;100.00
71976;BME280;60680;52.182;5.398;2023-02-05T04:33:25;103601.22;;;6.94;100.00
71976;BME280;60680;52.182;5.398;2023-02-05T04:35:56;103604.66;;;6.94;100.00
71976;BME280;60680;52.182;5.398;2023-02-05T04:38:23;103602.06;;;6.93;100.00
71976;BME280;60680;52.182;5.398;2023-02-05T04:40:49;103596.00;;;6.92;100.00
71976;BME280;60680;52.182;5.398;2023-02-05T04:43:16;103602.91;;;6.92;100.00
71976;BME280;60680;52.182;5.398;2023-02-05T04:45:42;103601.19;;;6.92;100.00
71976;BME280;60680;52.182;5.398;2023-02-05T04:48:09;103602.06;;;6.91;100.00
71976;BME280;60680;52.182;5.398;2023-02-05T04:50:37;103601.16;;;6.89;100.00
71976;BME280;60680;52.182;5.398;2023-02-05T04:53:04;103597.69;;;6.87;100.00
71976;BME280;60680;52.182;5.398;2023-02-05T04:55:31;103595.97;;;6.88;100.00
71976;BME280;60680;52.182;5.398;2023-02-05T04:57:58;103598.53;;;6.86;100.00
71976;BME280;60680;52.182;5.398;2023-02-05T05:00:25;103615.78;;;6.86;100.00
71976;BME280;60680;52.182;5.398;2023-02-05T05:02:52;103627.84;;;6.84;100.00
71976;BME280;60680;52.182;5.398;2023-02-05T05:05:18;103613.19;;;6.83;100.00
71976;BME280;60680;52.182;5.398;2023-02-05T05:07:45;103622.69;;;6.82;100.00
71976;BME280;60680;52.182;5.398;2023-02-05T05:10:12;103625.25;;;6.81;100.00
71976;BME280;60680;52.182;5.398;2023-02-05T05:12:38;103622.66;;;6.81;100.00
71976;BME280;60680;52.182;5.398;2023-02-05T05:15:05;103625.25;;;6.81;100.00
71976;BME280;60680;52.182;5.398;2023-02-05T05:17:33;103628.69;;;6.81;100.00
71976;BME280;60680;52.182;5.398;2023-02-05T05:20:00;103633.00;;;6.81;100.00
71976;BME280;60680;52.182;5.398;2023-02-05T05:22:26;103634.72;;;6.82;100.00
71976;BME280;60680;52.182;5.398;2023-02-05T05:24:53;103628.72;;;6.83;100.00
71976;BME280;60680;52.182;5.398;2023-02-05T05:27:19;103639.06;;;6.83;100.00
71976;BME280;60680;52.182;5.398;2023-02-05T05:29:48;103636.47;;;6.83;100.00
71976;BME280;60680;52.182;5.398;2023-02-05T05:32:16;103643.38;;;6.84;100.00
71976;BME280;60680;52.182;5.398;2023-02-05T05:34:42;103656.31;;;6.82;100.00
71976;BME280;60680;52.182;5.398;2023-02-05T05:37:08;103660.59;;;6.79;100.00
71976;BME280;60680;52.182;5.398;2023-02-05T05:39:35;103661.41;;;6.74;100.00
71976;BME280;60680;52.182;5.398;2023-02-05T05:42:20;103677.72;;;6.67;100.00
71976;BME280;60680;52.182;5.398;2023-02-05T05:45:05;103681.94;;;6.59;100.00
71976;BME280;60680;52.182;5.398;2023-02-05T05:47:31;103674.88;;;6.47;100.00
71976;BME280;60680;52.182;5.398;2023-02-05T05:49:58;103674.84;;;6.44;100.00
71976;BME280;60680;52.182;5.398;2023-02-05T05:52:24;103685.97;;;6.39;100.00
71976;BME280;60680;52.182;5.398;2023-02-05T05:54:50;103698.00;;;6.35;100.00
71976;BME280;60680;52.182;5.398;2023-02-05T05:57:17;103686.72;;;6.30;100.00
71976;BME280;60680;52.182;5.398;2023-02-05T05:59:43;103693.59;;;6.28;99.44
71976;BME280;60680;52.182;5.398;2023-02-05T06:02:10;103686.63;;;6.21;99.74
71976;BME280;60680;52.182;5.398;2023-02-05T06:04:36;103681.28;;;6.10;98.94
71976;BME280;60680;52.182;5.398;2023-02-05T06:07:03;103688.97;;;6.07;99.04
71976;BME280;60680;52.182;5.398;2023-02-05T06:09:29;103682.09;;;6.06;98.40
71976;BME280;60680;52.182;5.398;2023-02-05T06:11:56;103691.53;;;6.04;97.51
71976;BME280;60680;52.182;5.398;2023-02-05T06:14:22;103688.06;;;6.03;96.77
71976;BME280;60680;52.182;5.398;2023-02-05T06:16:49;103694.09;;;6.02;95.91
71976;BME280;60680;52.182;5.398;2023-02-05T06:19:17;103696.69;;;6.02;95.56
71976;BME280;60680;52.182;5.398;2023-02-05T06:21:43;103700.13;;;6.03;95.70
71976;BME280;60680;52.182;5.398;2023-02-05T06:24:10;103710.44;;;6.01;95.90
71976;BME280;60680;52.182;5.398;2023-02-05T06:26:36;103704.41;;;6.01;95.65
71976;BME280;60680;52.182;5.398;2023-02-05T06:29:03;103719.03;;;6.00;94.95
71976;BME280;60680;52.182;5.398;2023-02-05T06:31:29;103711.25;;;5.99;94.19
71976;BME280;60680;52.182;5.398;2023-02-05T06:33:56;103717.28;;;5.99;94.21
71976;BME280;60680;52.182;5.398;2023-02-05T06:36:23;103722.47;;;5.98;93.95
71976;BME280;60680;52.182;5.398;2023-02-05T06:38:49;103731.94;;;5.99;94.57
71976;BME280;60680;52.182;5.398;2023-02-05T06:41:16;103739.72;;;6.00;95.44
71976;BME280;60680;52.182;5.398;2023-02-05T06:43:42;103747.50;;;6.02;95.71
71976;BME280;60680;52.182;5.398;2023-02-05T06:46:09;103744.88;;;5.99;95.82
71976;BME280;60680;52.182;5.398;2023-02-05T06:48:35;103755.19;;;5.97;97.61
71976;BME280;60680;52.182;5.398;2023-02-05T06:51:02;103763.72;;;5.93;98.99
71976;BME280;60680;52.182;5.398;2023-02-05T06:53:28;103754.13;;;5.87;100.00
71976;BME280;60680;52.182;5.398;2023-02-05T06:55:58;103767.81;;;5.80;100.00
71976;BME280;60680;52.182;5.398;2023-02-05T06:58:24;103768.59;;;5.76;100.00
71976;BME280;60680;52.182;5.398;2023-02-05T07:00:51;103777.16;;;5.73;100.00
71976;BME280;60680;52.182;5.398;2023-02-05T07:03:17;103773.66;;;5.71;100.00
71976;BME280;60680;52.182;5.398;2023-02-05T07:05:43;103767.59;;;5.68;100.00
71976;BME280;60680;52.182;5.398;2023-02-05T07:08:10;103773.59;;;5.67;100.00
71976;BME280;60680;52.182;5.398;2023-02-05T07:10:36;103775.28;;;5.63;100.00
71976;BME280;60680;52.182;5.398;2023-02-05T07:13:03;103781.31;;;5.64;100.00
71976;BME280;60680;52.182;5.398;2023-02-05T07:15:31;103777.91;;;5.66;100.00
71976;BME280;60680;52.182;5.398;2023-02-05T07:17:58;103788.22;;;5.66;100.00
71976;BME280;60680;52.182;5.398;2023-02-05T07:20:24;103799.50;;;5.71;100.00
71976;BME280;60680;52.182;5.398;2023-02-05T07:22:50;103796.13;;;5.76;100.00
71976;BME280;60680;52.182;5.398;2023-02-05T07:25:17;103805.69;;;5.78;100.00
71976;BME280;60680;52.182;5.398;2023-02-05T07:27:43;103814.31;;;5.80;98.68
71976;BME280;60680;52.182;5.398;2023-02-05T07:30:10;103816.09;;;5.83;98.03
71976;BME280;60680;52.182;5.398;2023-02-05T07:32:37;103815.25;;;5.85;98.65
71976;BME280;60680;52.182;5.398;2023-02-05T07:35:04;103829.94;;;5.88;97.93
71976;BME280;60680;52.182;5.398;2023-02-05T07:37:30;103842.91;;;5.89;97.08
71976;BME280;60680;52.182;5.398;2023-02-05T07:39:57;103852.41;;;5.92;97.17
71976;BME280;60680;52.182;5.398;2023-02-05T07:42:23;103844.69;;;5.93;97.53
71976;BME280;60680;52.182;5.398;2023-02-05T07:44:50;103860.22;;;5.93;97.28
71976;BME280;60680;52.182;5.398;2023-02-05T07:47:18;103871.41;;;5.94;96.84
71976;BME280;60680;52.182;5.398;2023-02-05T07:49:45;103857.69;;;5.95;96.74
71976;BME280;60680;52.182;5.398;2023-02-05T07:52:11;103865.44;;;5.95;96.43
71976;BME280;60680;52.182;5.398;2023-02-05T07:54:38;103867.16;;;5.96;95.98
71976;BME280;60680;52.182;5.398;2023-02-05T07:57:05;103874.09;;;5.99;95.63
71976;BME280;60680;52.182;5.398;2023-02-05T07:59:32;103880.16;;;6.01;94.52
71976;BME280;60680;52.182;5.398;2023-02-05T08:01:59;103871.59;;;6.03;94.25
71976;BME280;60680;52.182;5.398;2023-02-05T08:04:25;103870.75;;;6.04;93.79
71976;BME280;60680;52.182;5.398;2023-02-05T08:06:51;103867.31;;;6.04;93.88
71976;BME280;60680;52.182;5.398;2023-02-05T08:09:18;103874.28;;;6.08;94.08
71976;BME280;60680;52.182;5.398;2023-02-05T08:11:44;103882.03;;;6.09;94.10
71976;BME280;60680;52.182;5.398;2023-02-05T08:14:11;103881.22;;;6.10;94.38
71976;BME280;60680;52.182;5.398;2023-02-05T08:16:37;103877.78;;;6.11;93.89
71976;BME280;60680;52.182;5.398;2023-02-05T08:19:03;103870.88;;;6.10;93.96
71976;BME280;60680;52.182;5.398;2023-02-05T08:21:31;103888.97;;;6.10;93.64
71976;BME280;60680;52.182;5.398;2023-02-05T08:23:57;103879.50;;;6.11;93.69
71976;BME280;60680;52.182;5.398;2023-02-05T08:26:26;103886.44;;;6.13;94.05
71976;BME280;60680;52.182;5.398;2023-02-05T08:28:53;103892.47;;;6.12;93.45
71976;BME280;60680;52.182;5.398;2023-02-05T08:31:20;103889.06;;;6.15;94.33
71976;BME280;60680;52.182;5.398;2023-02-05T08:33:46;103891.59;;;6.12;94.07
71976;BME280;60680;52.182;5.398;2023-02-05T08:36:15;103901.94;;;6.12;94.98
71976;BME280;60680;52.182;5.398;2023-02-05T08:38:42;103895.03;;;6.12;95.15
71976;BME280;60680;52.182;5.398;2023-02-05T08:41:09;103888.19;;;6.15;95.54
71976;BME280;60680;52.182;5.398;2023-02-05T08:43:41;103891.66;;;6.17;95.63
71976;BME280;60680;52.182;5.398;2023-02-05T08:46:08;103904.56;;;6.15;96.10
71976;BME280;60680;52.182;5.398;2023-02-05T08:48:35;103907.19;;;6.18;95.43
71976;BME280;60680;52.182;5.398;2023-02-05T08:51:02;103907.25;;;6.21;95.28
71976;BME280;60680;52.182;5.398;2023-02-05T08:53:32;103905.56;;;6.23;95.82
71976;BME280;60680;52.182;5.398;2023-02-05T08:56:00;103920.22;;;6.24;95.44
71976;BME280;60680;52.182;5.398;2023-02-05T08:58:27;103914.25;;;6.28;94.85
71976;BME280;60680;52.182;5.398;2023-02-05T09:01:15;103916.16;;;6.39;93.84
71976;BME280;60680;52.182;5.398;2023-02-05T09:03:43;103922.25;;;6.41;93.82
71976;BME280;60680;52.182;5.398;2023-02-05T09:06:13;103922.25;;;6.41;92.82
71976;BME280;60680;52.182;5.398;2023-02-05T09:08:40;103926.56;;;6.42;93.57
71976;BME280;60680;52.182;5.398;2023-02-05T09:11:07;103927.44;;;6.44;93.17
71976;BME280;60680;52.182;5.398;2023-02-05T09:13:34;103932.66;;;6.45;93.16
71976;BME280;60680;52.182;5.398;2023-02-05T09:16:00;103927.47;;;6.45;92.77
71976;BME280;60680;52.182;5.398;2023-02-05T09:18:26;103926.66;;;6.46;92.43
71976;BME280;60680;52.182;5.398;2023-02-05T09:20:53;103937.03;;;6.49;92.15
71976;BME280;60680;52.182;5.398;2023-02-05T09:23:20;103941.44;;;6.55;92.58
71976;BME280;60680;52.182;5.398;2023-02-05T09:25:47;103930.31;;;6.59;90.89
71976;BME280;60680;52.182;5.398;2023-02-05T09:28:14;103931.31;;;6.67;91.10
71976;BME280;60680;52.182;5.398;2023-02-05T09:30:43;103934.78;;;6.69;90.90
71976;BME280;60680;52.182;5.398;2023-02-05T09:33:10;103931.31;;;6.67;89.88
71976;BME280;60680;52.182;5.398;2023-02-05T09:35:37;103933.97;;;6.72;89.79
71976;BME280;60680;52.182;5.398;2023-02-05T09:38:03;103934.91;;;6.77;89.58
71976;BME280;60680;52.182;5.398;2023-02-05T09:40:38;103931.44;;;6.77;89.70
71976;BME280;60680;52.182;5.398;2023-02-05T09:46:05;103929.75;;;6.79;89.68
71976;BME280;60680;52.182;5.398;2023-02-05T09:51:42;103926.34;;;6.81;90.23
71976;BME280;60680;52.182;5.398;2023-02-05T09:54:14;103951.44;;;6.87;89.73
71976;BME280;60680;52.182;5.398;2023-02-05T09:56:45;103958.47;;;6.96;90.12
71976;BME280;60680;52.182;5.398;2023-02-05T09:59:15;103940.28;;;6.91;90.90
71976;BME280;60680;52.182;5.398;2023-02-05T10:02:02;103947.09;;;6.84;90.68
71976;BME280;60680;52.182;5.398;2023-02-05T10:04:39;103941.66;;;6.67;90.45
71976;BME280;60680;52.182;5.398;2023-02-05T10:07:14;103910.47;;;6.60;89.48
71976;BME280;60680;52.182;5.398;2023-02-05T10:12:29;103926.19;;;6.73;91.31
71976;BME280;60680;52.182;5.398;2023-02-05T10:26:23;103929.59;;;7.27;88.91
71976;BME280;60680;52.182;5.398;2023-02-05T10:29:13;103939.16;;;7.34;87.90
71976;BME280;60680;52.182;5.398;2023-02-05T10:36:55;103932.56;;;7.60;86.46
71976;BME280;60680;52.182;5.398;2023-02-05T10:39:24;103945.53;;;7.60;86.13
71976;BME280;60680;52.182;5.398;2023-02-05T10:41:59;103948.94;;;7.55;86.19
71976;BME280;60680;52.182;5.398;2023-02-05T10:44:31;103966.97;;;7.46;85.81
71976;BME280;60680;52.182;5.398;2023-02-05T10:47:04;103966.91;;;7.42;85.37
71976;BME280;60680;52.182;5.398;2023-02-05T10:49:54;103958.22;;;7.38;85.37
71976;BME280;60680;52.182;5.398;2023-02-05T10:52:23;103970.31;;;7.39;85.62
71976;BME280;60680;52.182;5.398;2023-02-05T10:54:49;103972.03;;;7.39;84.42
71976;BME280;60680;52.182;5.398;2023-02-05T10:57:18;103967.78;;;7.42;86.06
71976;BME280;60680;52.182;5.398;2023-02-05T10:59:58;103987.75;;;7.51;84.94
71976;BME280;60680;52.182;5.398;2023-02-05T11:02:32;103983.53;;;7.58;85.36
71976;BME280;60680;52.182;5.398;2023-02-05T11:05:15;103996.72;;;7.78;84.44
71976;BME280;60680;52.182;5.398;2023-02-05T11:07:46;103986.28;;;7.70;83.37
71976;BME280;60680;52.182;5.398;2023-02-05T11:10:24;103994.03;;;7.70;83.65
71976;BME280;60680;52.182;5.398;2023-02-05T11:12:56;103994.88;;;7.69;83.18
71976;BME280;60680;52.182;5.398;2023-02-05T11:15:29;103979.31;;;7.66;82.04
71976;BME280;60680;52.182;5.398;2023-02-05T11:18:05;103986.09;;;7.58;82.63
71976;BME280;60680;52.182;5.398;2023-02-05T11:20:34;103999.09;;;7.61;82.92
71976;BME280;60680;52.182;5.398;2023-02-05T11:23:22;104002.59;;;7.64;82.16
71976;BME280;60680;52.182;5.398;2023-02-05T11:25:55;104001.84;;;7.73;83.49
71976;BME280;60680;52.182;5.398;2023-02-05T11:28:29;104011.47;;;7.80;83.39
71976;BME280;60680;52.182;5.398;2023-02-05T11:30:56;103989.94;;;7.87;82.14
71976;BME280;60680;52.182;5.398;2023-02-05T11:33:26;103985.72;;;7.95;81.48
71976;BME280;60680;52.182;5.398;2023-02-05T11:35:56;103995.34;;;8.06;82.82
71976;BME280;60680;52.182;5.398;2023-02-05T11:38:29;103979.81;;;8.10;81.29
71976;BME280;60680;52.182;5.398;2023-02-05T11:40:58;103996.28;;;8.15;82.63
71976;BME280;60680;52.182;5.398;2023-02-05T11:43:33;103986.75;;;8.10;81.02
71976;BME280;60680;52.182;5.398;2023-02-05T11:46:02;103987.44;;;7.96;81.58
71976;BME280;60680;52.182;5.398;2023-02-05T11:48:40;103980.44;;;7.89;80.67
71976;BME280;60680;52.182;5.398;2023-02-05T11:51:14;103984.78;;;7.92;81.06
71976;BME280;60680;52.182;5.398;2023-02-05T11:53:51;103987.38;;;7.92;80.67
71976;BME280;60680;52.182;5.398;2023-02-05T11:56:22;103980.66;;;8.09;81.41
71976;BME280;60680;52.182;5.398;2023-02-05T11:59:20;103990.25;;;8.15;80.60
71976;BME280;60680;52.182;5.398;2023-02-05T12:01:47;103997.91;;;8.07;81.22
71976;BME280;60680;52.182;5.398;2023-02-05T12:04:17;104005.72;;;8.06;81.04
71976;BME280;60680;52.182;5.398;2023-02-05T12:07:00;103998.72;;;8.00;79.59
71976;BME280;60680;52.182;5.398;2023-02-05T12:09:32;104003.88;;;7.99;80.82
71976;BME280;60680;52.182;5.398;2023-02-05T12:12:14;103994.44;;;8.04;80.92
71976;BME280;60680;52.182;5.398;2023-02-05T12:20:32;104001.41;;;8.08;79.57
71976;BME280;60680;52.182;5.398;2023-02-05T12:23:23;104009.25;;;8.14;78.82
71976;BME280;60680;52.182;5.398;2023-02-05T12:39:57;104004.22;;;8.28;77.50
71976;BME280;60680;52.182;5.398;2023-02-05T12:42:30;103997.28;;;8.28;78.27
71976;BME280;60680;52.182;5.398;2023-02-05T12:48:18;104004.19;;;8.26;78.08
71976;BME280;60680;52.182;5.398;2023-02-05T12:53:42;104010.25;;;8.27;78.67
71976;BME280;60680;52.182;5.398;2023-02-05T12:56:24;104003.22;;;8.16;78.10
71976;BME280;60680;52.182;5.398;2023-02-05T12:59:02;104001.41;;;8.08;77.10
71976;BME280;60680;52.182;5.398;2023-02-05T13:01:42;103992.72;;;8.04;77.96
71976;BME280;60680;52.182;5.398;2023-02-05T13:04:24;103997.09;;;8.11;78.23
71976;BME280;60680;52.182;5.398;2023-02-05T13:06:59;104004.06;;;8.14;79.14
71976;BME280;60680;52.182;5.398;2023-02-05T13:09:55;104001.44;;;8.11;78.23
71976;BME280;60680;52.182;5.398;2023-02-05T13:12:30;104008.31;;;8.06;78.57
71976;BME280;60680;52.182;5.398;2023-02-05T13:17:49;104013.59;;;8.15;78.91
71976;BME280;60680;52.182;5.398;2023-02-05T13:20:26;104015.34;;;8.16;78.79
71976;BME280;60680;52.182;5.398;2023-02-05T13:23:17;104013.47;;;8.07;78.77
71976;BME280;60680;52.182;5.398;2023-02-05T13:26:04;104015.25;;;8.11;79.42
71976;BME280;60680;52.182;5.398;2023-02-05T13:29:01;104005.88;;;8.24;78.36
71976;BME280;60680;52.182;5.398;2023-02-05T13:31:36;104013.69;;;8.23;78.82
71976;BME280;60680;52.182;5.398;2023-02-05T13:34:06;104019.59;;;8.11;78.37
71976;BME280;60680;52.182;5.398;2023-02-05T13:44:53;104045.44;;;8.05;78.98
71976;BME280;60680;52.182;5.398;2023-02-05T13:58:48;104049.19;;;8.28;78.45
71976;BME280;60680;52.182;5.398;2023-02-05T14:01:30;104054.19;;;8.10;78.34
71976;BME280;60680;52.182;5.398;2023-02-05T14:04:16;104054.94;;;8.01;78.79
71976;BME280;60680;52.182;5.398;2023-02-05T14:06:49;104054.03;;;7.97;79.19
71976;BME280;60680;52.182;5.398;2023-02-05T14:09:37;104054.94;;;8.03;80.09
71976;BME280;60680;52.182;5.398;2023-02-05T14:12:23;104061.78;;;7.96;79.68
71976;BME280;60680;52.182;5.398;2023-02-05T14:22:52;104055.56;;;7.83;79.83
71976;BME280;60680;52.182;5.398;2023-02-05T14:28:02;104068.63;;;7.92;80.16
71976;BME280;60680;52.182;5.398;2023-02-05T14:33:00;104057.22;;;7.80;80.76
71976;BME280;60680;52.182;5.398;2023-02-05T14:35:33;104063.38;;;7.85;80.98
71976;BME280;60680;52.182;5.398;2023-02-05T14:38:21;104064.44;;;8.02;81.50
71976;BME280;60680;52.182;5.398;2023-02-05T14:41:14;104067.97;;;8.06;80.80
71976;BME280;60680;52.182;5.398;2023-02-05T14:43:54;104078.25;;;8.00;80.53
71976;BME280;60680;52.182;5.398;2023-02-05T14:48:57;104084.94;;;7.84;81.09
71976;BME280;60680;52.182;5.398;2023-02-05T14:51:48;104074.47;;;7.78;80.50
71976;BME280;60680;52.182;5.398;2023-02-05T14:54:19;104089.16;;;7.74;80.85
71976;BME280;60680;52.182;5.398;2023-02-05T14:56:51;104093.50;;;7.76;80.88
71976;BME280;60680;52.182;5.398;2023-02-05T14:59:28;104093.53;;;7.78;80.86